createdAt,value
2023-02-19T00:01:46.731Z,98702.25
2023-02-19T00:04:14.741Z,98702.16
2023-02-19T00:06:42.500Z,98707.81
2023-02-19T00:09:11.128Z,98715.84
2023-02-19T00:11:38.510Z,98707.66
2023-02-19T00:14:08.360Z,98709.94
2023-02-19T00:16:38.529Z,98714.06
2023-02-19T00:19:09.025Z,98708.91
2023-02-19T00:21:39.975Z,98705.34
2023-02-19T00:24:08.040Z,98713.81
2023-02-19T00:26:34.925Z,98703.69
2023-02-19T00:29:04.597Z,98705.53
2023-02-19T00:31:35.673Z,98701.94
2023-02-19T00:34:07.146Z,98702.66
2023-02-19T00:36:37.518Z,98698.72
2023-02-19T00:39:05.366Z,98697.16
2023-02-19T00:41:32.745Z,98695.91
2023-02-19T00:44:00.766Z,98696.97
2023-02-19T00:46:34.825Z,98691.47
2023-02-19T00:49:04.821Z,98703.78
2023-02-19T00:51:34.892Z,98693.66
2023-02-19T00:54:01.549Z,98688.88
2023-02-19T00:56:28.309Z,98704.31
2023-02-19T00:58:58.675Z,98710.34
2023-02-19T01:01:27.064Z,98706.06
2023-02-19T01:03:53.662Z,98704.06
2023-02-19T01:06:21.475Z,98707.47
2023-02-19T01:08:48.408Z,98704.66
2023-02-19T01:11:17.336Z,98696.78
2023-02-19T01:13:44.016Z,98697.47
2023-02-19T01:16:22.335Z,98712.03
2023-02-19T01:18:49.414Z,98706.53
2023-02-19T01:21:22.993Z,98711.50
2023-02-19T01:23:52.607Z,98714.47
2023-02-19T01:26:21.815Z,98715.25
2023-02-19T01:28:48.956Z,98708.81
2023-02-19T01:31:23.180Z,98703.41
2023-02-19T01:33:57.899Z,98707.22
2023-02-19T01:36:29.258Z,98694.41
2023-02-19T01:39:05.671Z,98688.59
2023-02-19T01:41:38.661Z,98686.22
2023-02-19T01:44:05.321Z,98681.50
2023-02-19T01:46:33.429Z,98675.22
2023-02-19T01:49:08.303Z,98684.47
2023-02-19T01:51:44.006Z,98683.66
2023-02-19T01:54:13.527Z,98676.72
2023-02-19T01:56:44.125Z,98679.72
2023-02-19T01:59:10.938Z,98676.59
2023-02-19T02:01:41.422Z,98675.03
2023-02-19T02:04:11.111Z,98674.25
2023-02-19T02:07:25.528Z,98663.78
2023-02-19T02:10:11.805Z,98650.66
2023-02-19T02:12:38.360Z,98656.72
2023-02-19T02:15:05.470Z,98657.06
2023-02-19T02:17:48.640Z,98648.88
2023-02-19T02:20:36.016Z,98641.47
2023-02-19T02:23:14.321Z,98643.28
2023-02-19T02:25:41.407Z,98650.25
2023-02-19T02:28:36.119Z,98650.94
2023-02-19T02:31:14.708Z,98642.50
2023-02-19T02:33:47.893Z,98634.72
2023-02-19T02:36:35.851Z,98628.22
2023-02-19T02:39:05.501Z,98624.38
2023-02-19T02:41:41.028Z,98637.88
2023-02-19T02:44:07.723Z,98646.00
2023-02-19T02:46:36.899Z,98644.41
2023-02-19T02:49:06.644Z,98640.13
2023-02-19T02:51:45.641Z,98644.41
2023-02-19T02:54:35.305Z,98656.00
2023-02-19T02:57:04.475Z,98664.44
2023-02-19T02:59:34.778Z,98656.78
2023-02-19T03:02:14.860Z,98644.41
2023-02-19T03:05:38.278Z,98652.94
2023-02-19T03:08:11.904Z,98637.53
2023-02-19T03:10:59.645Z,98638.31
2023-02-19T03:13:55.585Z,98644.06
2023-02-19T03:16:47.312Z,98642.84
2023-02-19T03:19:21.472Z,98641.72
2023-02-19T03:22:10.841Z,98650.59
2023-02-19T03:25:08.349Z,98658.34
2023-02-19T03:27:37.651Z,98667.59
2023-02-19T03:30:11.973Z,98675.22
2023-02-19T03:32:55.702Z,98673.69
2023-02-19T03:35:32.232Z,98674.47
2023-02-19T03:38:18.664Z,98664.00
2023-02-19T03:41:01.718Z,98651.63
2023-02-19T03:44:00.397Z,98655.91
2023-02-19T03:46:44.468Z,98641.94
2023-02-19T03:49:18.928Z,98645.34
2023-02-19T03:52:03.281Z,98636.81
2023-02-19T03:54:46.048Z,98655.25
2023-02-19T03:57:45.010Z,98657.06
2023-02-19T04:00:17.073Z,98644.25
2023-02-19T04:02:56.202Z,98639.56
2023-02-19T04:05:37.369Z,98636.09
2023-02-19T04:08:13.062Z,98647.66
2023-02-19T04:10:42.527Z,98636.84
2023-02-19T04:13:18.581Z,98638.44
2023-02-19T04:15:49.236Z,98648.44
2023-02-19T04:18:20.634Z,98646.88
2023-02-19T04:20:50.360Z,98646.78
2023-02-19T04:23:22.517Z,98639.25
2023-02-19T04:25:59.448Z,98639.59
2023-02-19T04:28:27.795Z,98630.38
2023-02-19T04:30:54.446Z,98637.34
2023-02-19T04:33:20.934Z,98645.00
2023-02-19T04:35:47.564Z,98641.53
2023-02-19T04:38:14.848Z,98636.47
2023-02-19T04:40:41.361Z,98636.47
2023-02-19T04:43:09.840Z,98633.75
2023-02-19T04:45:39.292Z,98639.94
2023-02-19T04:48:06.155Z,98645.78
2023-02-19T04:50:39.169Z,98644.22
2023-02-19T04:53:06.260Z,98650.38
2023-02-19T04:55:32.799Z,98648.84
2023-02-19T04:58:00.513Z,98637.25
2023-02-19T05:00:27.182Z,98645.34
2023-02-19T05:02:53.695Z,98642.63
2023-02-19T05:05:22.464Z,98642.63
2023-02-19T05:07:49.020Z,98637.25
2023-02-19T05:10:15.642Z,98635.34
2023-02-19T05:12:52.707Z,98639.94
2023-02-19T05:15:22.136Z,98633.31
2023-02-19T05:17:48.632Z,98646.69
2023-02-19T05:20:15.402Z,98647.03
2023-02-19T05:22:42.107Z,98637.69
2023-02-19T05:25:08.595Z,98641.97
2023-02-19T05:27:35.236Z,98646.22
2023-02-19T05:30:01.829Z,98644.34
2023-02-19T05:32:28.403Z,98652.44
2023-02-19T05:34:55.108Z,98662.06
2023-02-19T05:37:21.585Z,98666.34
2023-02-19T05:39:49.398Z,98657.47
2023-02-19T05:42:17.832Z,98673.22
2023-02-19T05:44:44.415Z,98672.44
2023-02-19T05:47:11.237Z,98668.63
2023-02-19T05:49:39.592Z,98676.72
2023-02-19T05:52:06.114Z,98689.53
2023-02-19T05:54:32.622Z,98694.94
2023-02-19T05:57:01.444Z,98694.94
2023-02-19T05:59:28.322Z,98699.53
2023-02-19T06:01:55.709Z,98703.47
2023-02-19T06:04:22.508Z,98702.81
2023-02-19T06:06:49.403Z,98700.53
2023-02-19T06:09:18.441Z,98707.97
2023-02-19T06:11:45.197Z,98701.78
2023-02-19T06:14:14.043Z,98712.22
2023-02-19T06:16:40.765Z,98705.25
2023-02-19T06:19:09.501Z,98709.06
2023-02-19T06:21:36.039Z,98712.22
2023-02-19T06:24:07.339Z,98716.50
2023-02-19T06:26:34.389Z,98718.41
2023-02-19T06:29:00.921Z,98716.50
2023-02-19T06:31:30.030Z,98717.28
2023-02-19T06:33:58.604Z,98716.50
2023-02-19T06:36:25.333Z,98721.09
2023-02-19T06:38:51.978Z,98723.72
2023-02-19T06:41:20.683Z,98724.84
2023-02-19T06:43:47.692Z,98729.13
2023-02-19T06:46:14.317Z,98729.13
2023-02-19T06:48:42.752Z,98738.00
2023-02-19T06:51:14.286Z,98737.22
2023-02-19T06:53:41.087Z,98743.72
2023-02-19T06:56:23.172Z,98748.00
2023-02-19T06:58:49.648Z,98755.22
2023-02-19T07:01:16.502Z,98766.00
2023-02-19T07:03:43.162Z,98762.06
2023-02-19T07:06:09.765Z,98760.78
2023-02-19T07:08:36.357Z,98774.19
2023-02-19T07:11:02.963Z,98775.19
2023-02-19T07:13:29.452Z,98778.56
2023-02-19T07:16:02.513Z,98786.22
2023-02-19T07:18:30.390Z,98789.56
2023-02-19T07:21:10.322Z,98794.41
2023-02-19T07:23:38.276Z,98794.31
2023-02-19T07:26:05.493Z,98792.72
2023-02-19T07:28:32.250Z,98813.53
2023-02-19T07:31:02.960Z,98808.81
2023-02-19T07:33:29.550Z,98815.75
2023-02-19T07:35:56.048Z,98821.97
2023-02-19T07:38:27.748Z,98819.25
2023-02-19T07:40:56.933Z,98825.00
2023-02-19T07:43:24.744Z,98833.44
2023-02-19T07:45:53.438Z,98839.94
2023-02-19T07:48:20.742Z,98843.41
2023-02-19T07:50:58.770Z,98845.78
2023-02-19T07:53:27.997Z,98848.59
2023-02-19T07:55:54.747Z,98848.25
2023-02-19T07:58:23.479Z,98846.25
2023-02-19T08:00:49.934Z,98855.56
2023-02-19T08:03:16.459Z,98855.56
2023-02-19T08:05:45.240Z,98872.19
2023-02-19T08:08:14.428Z,98881.06
2023-02-19T08:11:00.511Z,98871.41
2023-02-19T08:13:30.173Z,98868.38
2023-02-19T08:16:07.597Z,98870.28
2023-02-19T08:18:42.942Z,98878.28
2023-02-19T08:21:10.573Z,98877.47
2023-02-19T08:23:37.380Z,98879.84
2023-02-19T08:26:04.535Z,98884.00
2023-02-19T08:28:31.417Z,98888.94
2023-02-19T08:31:03.016Z,98892.75
2023-02-19T08:33:36.429Z,98888.25
2023-02-19T08:36:08.117Z,98890.66
2023-02-19T08:38:36.516Z,98874.56
2023-02-19T08:41:08.532Z,98882.56
2023-02-19T08:43:35.911Z,98889.31
2023-02-19T08:46:16.304Z,98884.69
2023-02-19T08:48:42.824Z,98890.00
2023-02-19T08:51:11.540Z,98890.31
2023-02-19T08:53:39.614Z,98893.47
2023-02-19T08:56:11.070Z,98888.19
2023-02-19T08:58:40.107Z,98887.63
2023-02-19T09:01:17.424Z,98885.75
2023-02-19T09:03:44.150Z,98897.03
2023-02-19T09:06:18.420Z,98903.19
2023-02-19T09:08:45.326Z,98905.34
2023-02-19T09:11:12.190Z,98908.84
2023-02-19T09:13:38.986Z,98904.09
2023-02-19T09:16:06.181Z,98905.31
2023-02-19T09:18:32.801Z,98911.84
2023-02-19T09:21:05.166Z,98909.34
2023-02-19T09:23:36.490Z,98905.31
2023-02-19T09:26:06.951Z,98914.66
2023-02-19T09:28:33.634Z,98920.06
2023-02-19T09:31:13.840Z,98928.50
2023-02-19T09:33:51.195Z,98924.97
2023-02-19T09:36:18.720Z,98925.41
2023-02-19T09:38:45.601Z,98929.44
2023-02-19T09:41:32.520Z,98939.66
2023-02-19T09:44:00.928Z,98930.44
2023-02-19T09:46:49.319Z,98936.72
2023-02-19T09:49:21.239Z,98932.06
2023-02-19T09:52:01.421Z,98940.16
2023-02-19T09:54:30.818Z,98929.56
2023-02-19T09:57:02.467Z,98934.94
2023-02-19T09:59:39.551Z,98942.84
2023-02-19T10:02:17.203Z,98937.38
2023-02-19T10:04:45.978Z,98938.91
2023-02-19T10:07:21.743Z,98930.44
2023-02-19T10:10:13.734Z,98922.22
2023-02-19T10:12:47.735Z,98925.44
2023-02-19T10:15:27.498Z,98929.72
2023-02-19T10:17:54.340Z,98929.09
2023-02-19T10:20:24.834Z,98918.53
2023-02-19T10:23:05.225Z,98921.31
2023-02-19T10:25:33.820Z,98919.59
2023-02-19T10:28:01.688Z,98921.97
2023-02-19T10:30:33.656Z,98933.31
2023-02-19T10:33:15.290Z,98925.44
2023-02-19T10:36:05.709Z,98927.88
2023-02-19T10:38:39.183Z,98924.69
2023-02-19T10:41:13.309Z,98920.41
2023-02-19T10:43:44.058Z,98911.88
2023-02-19T10:46:26.161Z,98923.56
2023-02-19T10:48:59.490Z,98929.94
2023-02-19T10:51:38.640Z,98928.41
2023-02-19T10:54:24.949Z,98933.19
2023-02-19T10:56:51.362Z,98934.25
2023-02-19T10:59:18.024Z,98942.56
2023-02-19T11:01:59.008Z,98934.44
2023-02-19T11:04:27.509Z,98940.75
2023-02-19T11:06:54.332Z,98940.84
2023-02-19T11:09:32.753Z,98944.88
2023-02-19T11:11:59.583Z,98931.34
2023-02-19T11:14:29.668Z,98939.28
2023-02-19T11:17:00.286Z,98932.38
2023-02-19T11:19:36.791Z,98924.03
2023-02-19T11:22:38.665Z,98916.00
2023-02-19T11:25:17.749Z,98908.59
2023-02-19T11:28:07.493Z,98915.56
2023-02-19T11:30:40.413Z,98913.41
2023-02-19T11:33:24.118Z,98916.91
2023-02-19T11:36:27.669Z,98913.69
2023-02-19T11:39:03.693Z,98930.63
2023-02-19T11:41:49.084Z,98928.16
2023-02-19T11:44:30.432Z,98933.03
2023-02-19T11:47:18.504Z,98935.56
2023-02-19T11:49:46.862Z,98930.25
2023-02-19T11:52:16.062Z,98938.53
2023-02-19T11:54:54.805Z,98937.63
2023-02-19T11:57:36.315Z,98944.31
2023-02-19T12:00:17.593Z,98938.81
2023-02-19T12:03:21.304Z,98938.38
2023-02-19T12:05:57.110Z,98936.34
2023-02-19T12:08:31.981Z,98931.06
2023-02-19T12:11:12.514Z,98926.25
2023-02-19T12:14:15.216Z,98918.84
2023-02-19T12:16:54.929Z,98919.72
2023-02-19T12:19:55.618Z,98907.53
2023-02-19T12:22:40.551Z,98915.34
2023-02-19T12:25:29.121Z,98915.00
2023-02-19T12:28:00.529Z,98908.41
2023-02-19T12:30:41.967Z,98899.91
2023-02-19T12:33:22.024Z,98897.78
2023-02-19T12:36:00.719Z,98899.72
2023-02-19T12:38:58.181Z,98903.56
2023-02-19T12:41:53.321Z,98902.25
2023-02-19T12:44:30.451Z,98906.78
2023-02-19T12:47:01.587Z,98911.25
2023-02-19T12:49:30.952Z,98916.13
2023-02-19T12:52:04.588Z,98912.28
2023-02-19T12:54:38.404Z,98909.19
2023-02-19T12:57:12.488Z,98916.69
2023-02-19T13:00:07.931Z,98916.16
2023-02-19T13:02:50.444Z,98928.88
2023-02-19T13:05:38.402Z,98926.66
2023-02-19T13:08:14.338Z,98915.72
2023-02-19T13:10:50.400Z,98910.59
2023-02-19T13:13:28.829Z,98913.44
2023-02-19T13:16:06.335Z,98906.66
2023-02-19T13:18:43.593Z,98887.50
2023-02-19T13:21:12.082Z,98891.28
2023-02-19T13:24:03.261Z,98882.53
2023-02-19T13:26:49.173Z,98887.13
2023-02-19T13:29:37.140Z,98868.38
2023-02-19T13:32:25.222Z,98875.69
2023-02-19T13:35:11.691Z,98897.69
2023-02-19T13:37:38.655Z,98896.38
2023-02-19T13:40:27.201Z,98883.19
2023-02-19T13:43:05.508Z,98885.72
2023-02-19T13:45:36.589Z,98885.78
2023-02-19T13:48:14.234Z,98897.22
2023-02-19T13:50:43.258Z,98909.16
2023-02-19T13:53:48.273Z,98907.34
2023-02-19T13:56:29.899Z,98917.56
2023-02-19T13:59:01.518Z,98914.41
2023-02-19T14:01:52.738Z,98919.59
2023-02-19T14:04:39.401Z,98911.53
2023-02-19T14:07:10.056Z,98896.72
2023-02-19T14:09:40.037Z,98896.00
2023-02-19T14:12:16.430Z,98895.25
2023-02-19T14:15:24.786Z,98886.19
2023-02-19T14:17:53.109Z,98885.75
2023-02-19T14:20:41.672Z,98884.97
2023-02-19T14:23:25.491Z,98878.16
2023-02-19T14:25:56.676Z,98880.59
2023-02-19T14:28:31.706Z,98877.69
2023-02-19T14:31:21.024Z,98877.19
2023-02-19T14:33:53.776Z,98875.84
2023-02-19T14:36:48.749Z,98869.97
2023-02-19T14:39:42.152Z,98868.84
2023-02-19T14:42:17.703Z,98876.53
2023-02-19T14:44:50.367Z,98867.28
2023-02-19T14:47:20.347Z,98860.91
2023-02-19T14:49:52.835Z,98867.91
2023-02-19T14:52:26.569Z,98871.63
2023-02-19T14:55:02.297Z,98863.78
2023-02-19T14:57:32.851Z,98859.25
2023-02-19T15:00:01.721Z,98868.31
2023-02-19T15:02:30.986Z,98876.94
2023-02-19T15:04:58.080Z,98877.28
2023-02-19T15:07:33.489Z,98884.97
2023-02-19T15:10:05.039Z,98887.03
2023-02-19T15:12:45.157Z,98884.78
2023-02-19T15:15:25.542Z,98894.38
2023-02-19T15:17:54.474Z,98894.19
2023-02-19T15:20:25.663Z,98897.94
2023-02-19T15:22:54.850Z,98902.56
2023-02-19T15:25:23.870Z,98902.00
2023-02-19T15:27:50.644Z,98902.91
2023-02-19T15:30:23.625Z,98914.06
2023-02-19T15:32:59.099Z,98916.69
2023-02-19T15:35:27.502Z,98915.19
2023-02-19T15:37:57.848Z,98916.78
2023-02-19T15:40:32.635Z,98910.47
2023-02-19T15:43:00.710Z,98905.06
2023-02-19T15:45:40.482Z,98918.94
2023-02-19T15:48:32.092Z,98917.81
2023-02-19T15:51:09.403Z,98918.50
2023-02-19T15:53:46.680Z,98910.28
2023-02-19T15:56:32.164Z,98914.91
2023-02-19T15:59:22.739Z,98914.81
2023-02-19T16:01:49.496Z,98927.78
2023-02-19T16:04:18.599Z,98925.34
2023-02-19T16:06:54.484Z,98925.22
2023-02-19T16:09:28.216Z,98924.69
2023-02-19T16:11:58.480Z,98920.31
2023-02-19T16:14:25.227Z,98919.41
2023-02-19T16:16:55.624Z,98927.41
2023-02-19T16:19:31.397Z,98931.59
2023-02-19T16:21:58.492Z,98938.03
2023-02-19T16:24:28.500Z,98941.84
2023-02-19T16:26:57.151Z,98939.81
2023-02-19T16:29:31.527Z,98940.50
2023-02-19T16:32:03.594Z,98950.44
2023-02-19T16:34:41.664Z,98947.97
2023-02-19T16:37:40.795Z,98943.22
2023-02-19T16:40:07.452Z,98958.66
2023-02-19T16:42:58.286Z,98960.13
2023-02-19T16:45:27.376Z,98962.72
2023-02-19T16:47:54.246Z,98970.38
2023-02-19T16:50:25.100Z,98959.47
2023-02-19T16:53:02.093Z,98966.00
2023-02-19T16:55:30.172Z,98972.06
2023-02-19T16:57:56.739Z,98974.31
2023-02-19T17:00:33.709Z,98977.34
2023-02-19T17:03:09.035Z,98983.09
2023-02-19T17:05:41.309Z,98990.41
2023-02-19T17:08:33.808Z,98988.06
2023-02-19T17:11:11.381Z,99001.09
2023-02-19T17:13:38.280Z,98994.09
2023-02-19T17:16:05.328Z,99006.06
2023-02-19T17:18:38.161Z,98995.59
2023-02-19T17:21:16.148Z,99004.00
2023-02-19T17:23:49.281Z,99000.09
2023-02-19T17:26:18.101Z,99007.03
2023-02-19T17:28:44.588Z,99020.09
2023-02-19T17:31:12.079Z,99013.94
2023-02-19T17:33:38.947Z,98998.84
2023-02-19T17:36:07.892Z,99003.78
2023-02-19T17:38:38.932Z,99001.88
2023-02-19T17:41:05.451Z,99013.78
2023-02-19T17:43:31.913Z,99006.03
2023-02-19T17:45:58.537Z,98996.34
2023-02-19T17:48:25.212Z,98994.75
2023-02-19T17:50:52.300Z,99002.09
2023-02-19T17:55:45.834Z,98991.97
2023-02-19T17:58:12.627Z,98995.78
2023-02-19T18:00:41.418Z,98996.13
2023-02-19T18:03:08.064Z,99002.63
2023-02-19T18:05:34.880Z,98999.50
2023-02-19T18:08:03.179Z,99002.97
2023-02-19T18:10:30.536Z,99009.50
2023-02-19T18:12:57.192Z,99007.94
2023-02-19T18:15:31.343Z,99007.47
2023-02-19T18:17:58.390Z,99006.69
2023-02-19T18:20:27.406Z,99006.25
2023-02-19T18:22:56.576Z,99005.44
2023-02-19T18:25:25.495Z,98999.25
2023-02-19T18:27:52.660Z,99006.09
2023-02-19T18:30:22.990Z,99008.47
2023-02-19T18:32:50.271Z,99004.53
2023-02-19T18:35:23.855Z,99010.72
2023-02-19T18:37:53.254Z,99008.38
2023-02-19T18:40:25.988Z,99009.47
2023-02-19T18:42:52.992Z,99015.22
2023-02-19T18:45:19.607Z,99019.03
2023-02-19T18:47:50.123Z,99025.53
2023-02-19T18:50:19.417Z,99033.19
2023-02-19T18:52:45.961Z,99045.88
2023-02-19T18:55:12.488Z,99041.63
2023-02-19T18:57:39.035Z,99035.88
2023-02-19T19:00:06.963Z,99033.19
2023-02-19T19:02:48.728Z,99021.91
2023-02-19T19:05:23.452Z,99024.97
2023-02-19T19:07:57.063Z,99008.63
2023-02-19T19:10:26.340Z,99009.75
2023-02-19T19:12:54.202Z,99010.06
2023-02-19T19:15:25.988Z,99015.81
2023-02-19T19:17:52.865Z,99021.06
2023-02-19T19:20:23.312Z,99033.78
2023-02-19T19:22:52.903Z,99026.69
2023-02-19T19:25:23.260Z,99024.75
2023-02-19T19:27:51.691Z,99013.06
2023-02-19T19:30:20.455Z,99009.09
2023-02-19T19:32:51.882Z,99018.66
2023-02-19T19:35:19.552Z,99022.81
2023-02-19T19:37:48.141Z,99024.25
2023-02-19T19:40:17.176Z,99027.63
2023-02-19T19:42:46.096Z,99022.88
2023-02-19T19:45:14.191Z,99028.50
2023-02-19T19:47:40.698Z,99042.16
2023-02-19T19:50:07.450Z,99043.16
2023-02-19T19:52:35.709Z,99046.84
2023-02-19T19:55:02.329Z,99037.81
2023-02-19T19:57:28.802Z,99049.25
2023-02-19T19:59:57.464Z,99052.94
2023-02-19T20:02:24.140Z,99045.06
2023-02-19T20:04:51.104Z,99047.59
2023-02-19T20:07:17.650Z,99045.09
2023-02-19T20:09:51.434Z,99045.75
2023-02-19T20:12:18.035Z,99045.63
2023-02-19T20:14:46.178Z,99041.00
2023-02-19T20:17:13.157Z,99042.13
2023-02-19T20:19:39.700Z,99039.44
2023-02-19T20:22:06.203Z,99050.69
2023-02-19T20:24:32.732Z,99060.31
2023-02-19T20:27:02.585Z,99058.78
2023-02-19T20:29:35.436Z,99060.66
2023-02-19T20:32:03.978Z,99069.06
2023-02-19T20:34:31.080Z,99074.00
2023-02-19T20:36:57.953Z,99079.41
2023-02-19T20:39:28.812Z,99087.50
2023-02-19T20:41:56.286Z,99095.56
2023-02-19T20:44:27.154Z,99094.13
2023-02-19T20:46:54.097Z,99094.91
2023-02-19T20:49:23.123Z,99091.13
2023-02-19T20:51:52.118Z,99097.28
2023-02-19T20:54:20.584Z,99105.03
2023-02-19T20:56:49.307Z,99096.19
2023-02-19T20:59:17.391Z,99099.66
2023-02-19T21:01:44.324Z,99098.88
2023-02-19T21:04:11.244Z,99103.44
2023-02-19T21:06:42.487Z,99098.88
2023-02-19T21:11:40.434Z,99106.31
2023-02-19T21:14:06.958Z,99109.78
2023-02-19T21:16:33.663Z,99100.59
2023-02-19T21:19:00.280Z,99102.16
2023-02-19T21:21:29.369Z,99103.75
2023-02-19T21:23:57.858Z,99103.75
2023-02-19T21:26:25.451Z,99097.22
2023-02-19T21:29:03.788Z,99093.75
2023-02-19T21:31:47.816Z,99092.16
2023-02-19T21:34:21.154Z,99087.59
2023-02-19T21:36:49.340Z,99078.38
2023-02-19T21:39:19.028Z,99083.44
2023-02-19T21:41:45.750Z,99075.00
2023-02-19T21:44:12.499Z,99081.53
2023-02-19T21:46:39.132Z,99085.78
2023-02-19T21:49:11.213Z,99080.41
2023-02-19T21:51:40.237Z,99081.22
2023-02-19T21:54:08.279Z,99077.72
2023-02-19T21:56:36.649Z,99079.28
2023-02-19T21:59:05.268Z,99079.28
2023-02-19T22:01:34.092Z,99073.13
2023-02-19T22:04:01.457Z,99081.53
2023-02-19T22:06:30.756Z,99086.94
2023-02-19T22:08:58.281Z,99085.19
2023-02-19T22:11:31.255Z,99092.03
2023-02-19T22:13:58.146Z,99094.59
2023-02-19T22:16:25.016Z,99101.09
2023-02-19T22:18:57.305Z,99096.84
2023-02-19T22:21:26.090Z,99100.16
2023-02-19T22:23:53.659Z,99105.53
2023-02-19T22:26:34.481Z,99103.16
2023-02-19T22:29:05.921Z,99103.16
2023-02-19T22:31:33.405Z,99102.72
2023-02-19T22:34:04.690Z,99101.13
2023-02-19T22:36:33.352Z,99106.53
2023-02-19T22:39:01.025Z,99111.47
2023-02-19T22:41:29.457Z,99116.84
2023-02-19T22:43:57.337Z,99115.25
2023-02-19T22:46:25.718Z,99116.84
2023-02-19T22:48:54.684Z,99117.97
2023-02-19T22:51:23.164Z,99102.13
2023-02-19T22:54:00.422Z,99095.91
2023-02-19T22:56:28.585Z,99102.75
2023-02-19T22:58:56.912Z,99090.72
2023-02-19T23:01:25.778Z,99094.06
2023-02-19T23:03:54.937Z,99092.81
2023-02-19T23:06:33.296Z,99100.09
2023-02-19T23:09:04.198Z,99100.75
2023-02-19T23:11:34.057Z,99091.88
2023-02-19T23:14:02.696Z,99092.19
2023-02-19T23:16:29.290Z,99089.69
2023-02-19T23:18:55.886Z,99094.13
2023-02-19T23:21:25.479Z,99094.31
2023-02-19T23:23:51.946Z,99094.47
2023-02-19T23:26:19.479Z,99098.94
2023-02-19T23:28:46.989Z,99094.19
2023-02-19T23:31:16.221Z,99089.47
2023-02-19T23:33:43.503Z,99090.09
2023-02-19T23:36:11.541Z,99094.69
2023-02-19T23:38:38.241Z,99099.28
2023-02-19T23:41:10.799Z,99110.50
2023-02-19T23:43:39.381Z,99110.19
2023-02-19T23:46:06.242Z,99112.88
2023-02-19T23:48:32.884Z,99111.00
2023-02-19T23:51:01.461Z,99120.97
2023-02-19T23:53:28.171Z,99125.09
2023-02-19T23:55:54.899Z,99123.97
2023-02-19T23:58:21.513Z,99127.31
